Time;durP1;ratioP1;P1;durP2;ratioP2;P2;SDS_P1;SDS_P2;PMS_P1;PMS_P2;Temp;Humidity;BMP_temperature;BMP_pressure;BME280_temperature;BME280_humidity;BME280_pressure;Samples;Min_cycle;Max_cycle;Signal;HPM_P1;HPM_P2
2021/01/27 00:00:24;;;;;;;26.42;13.40;;;2.50;99.90;;;;;;4838210;29;20500;-87
2021/01/27 00:02:50;;;;;;;19.48;12.68;;;2.50;99.90;;;;;;4819999;29;20054;-87
2021/01/27 00:05:23;;;;;;;29.42;13.25;;;2.50;99.90;;;;;;4846995;29;20111;-86
2021/01/27 00:07:48;;;;;;;17.27;13.05;;;2.50;99.90;;;;;;4838842;29;20074;-85
2021/01/27 00:10:15;;;;;;;23.35;13.18;;;2.50;99.90;;;;;;4838118;29;20133;-85
2021/01/27 00:12:42;;;;;;;26.33;14.15;;;2.50;99.90;;;;;;4838518;29;20166;-84
2021/01/27 00:15:14;;;;;;;20.58;12.80;;;2.50;99.90;;;;;;4837156;29;20523;-85
2021/01/27 00:17:40;;;;;;;24.30;14.15;;;2.50;99.90;;;;;;4837959;29;20050;-83
2021/01/27 00:20:09;;;;;;;22.70;13.73;;;2.40;99.90;;;;;;4839027;29;20053;-86
2021/01/27 00:22:35;;;;;;;28.42;14.35;;;2.50;99.90;;;;;;4839349;29;20045;-86
2021/01/27 00:25:03;;;;;;;27.20;14.50;;;2.50;99.90;;;;;;4822498;29;20050;-85
2021/01/27 00:27:29;;;;;;;23.60;14.70;;;2.50;99.90;;;;;;4838256;29;20053;-86
2021/01/27 00:29:55;;;;;;;23.98;14.50;;;2.60;99.90;;;;;;4838036;29;20544;-85
2021/01/27 00:32:20;;;;;;;33.80;15.27;;;2.50;99.90;;;;;;4838170;29;20061;-86
2021/01/27 00:34:47;;;;;;;26.60;14.73;;;2.60;99.90;;;;;;4836827;29;20428;-86
2021/01/27 00:37:12;;;;;;;23.95;15.32;;;2.60;99.90;;;;;;4823112;29;20068;-85
2021/01/27 00:39:38;;;;;;;22.48;14.05;;;2.60;99.90;;;;;;4838748;29;20045;-86
2021/01/27 00:42:04;;;;;;;23.55;15.10;;;2.60;99.90;;;;;;4822246;29;20152;-86
2021/01/27 00:44:30;;;;;;;29.83;18.17;;;2.60;99.90;;;;;;4839137;29;20046;-85
2021/01/27 00:46:56;;;;;;;26.80;14.68;;;2.60;99.90;;;;;;4837801;29;20095;-86
2021/01/27 00:49:23;;;;;;;25.38;15.00;;;2.60;99.90;;;;;;4839076;29;20049;-87
2021/01/27 00:51:50;;;;;;;23.85;15.30;;;2.60;99.90;;;;;;4825314;29;20042;-85
2021/01/27 00:54:16;;;;;;;28.40;16.23;;;2.70;99.90;;;;;;4822575;29;20115;-86
2021/01/27 00:56:42;;;;;;;20.30;15.27;;;2.70;99.90;;;;;;4838446;29;20501;-85
2021/01/27 00:59:08;;;;;;;27.45;16.38;;;2.60;99.90;;;;;;4838089;29;20094;-86
2021/01/27 01:01:34;;;;;;;27.63;16.58;;;2.70;99.90;;;;;;4820332;29;20042;-86
2021/01/27 01:04:02;;;;;;;26.08;15.80;;;2.60;99.90;;;;;;4798669;29;20045;-86
2021/01/27 01:06:28;;;;;;;26.88;17.05;;;2.70;99.90;;;;;;4835562;29;20515;-86
2021/01/27 01:08:54;;;;;;;25.88;16.38;;;2.70;99.90;;;;;;4819860;29;20386;-86
2021/01/27 01:11:20;;;;;;;28.13;15.90;;;2.70;99.90;;;;;;4835671;29;20061;-86
2021/01/27 01:13:46;;;;;;;23.30;15.85;;;2.70;99.90;;;;;;4838121;29;20046;-84
2021/01/27 01:16:12;;;;;;;29.45;17.30;;;2.60;99.90;;;;;;4838284;29;20054;-86
2021/01/27 01:18:37;;;;;;;29.13;16.58;;;2.70;99.90;;;;;;4822390;29;20054;-85
2021/01/27 01:21:03;;;;;;;28.90;16.98;;;2.70;99.90;;;;;;4794127;29;20660;-87
2021/01/27 01:23:29;;;;;;;33.72;16.73;;;2.70;99.90;;;;;;4820458;29;20085;-86
2021/01/27 01:25:55;;;;;;;27.70;17.40;;;2.70;99.90;;;;;;4827243;29;20078;-86
2021/01/27 01:28:21;;;;;;;31.08;17.08;;;2.70;99.90;;;;;;4851573;29;20110;-85
2021/01/27 01:30:48;;;;;;;30.10;17.17;;;2.70;99.90;;;;;;4821488;29;20046;-84
2021/01/27 01:33:19;;;;;;;24.60;16.23;;;2.70;99.90;;;;;;4838326;29;20045;-85
2021/01/27 01:35:46;;;;;;;31.67;17.38;;;2.70;99.90;;;;;;4838041;29;20055;-84
2021/01/27 01:38:13;;;;;;;31.95;18.50;;;2.80;99.90;;;;;;4821835;29;20054;-86
2021/01/27 01:40:46;;;;;;;30.75;17.25;;;2.70;99.90;;;;;;4806884;29;20077;-87
2021/01/27 01:43:11;;;;;;;27.27;17.70;;;2.70;99.90;;;;;;4837984;29;20042;-86
2021/01/27 01:45:46;;;;;;;32.10;17.02;;;2.80;99.90;;;;;;4822155;29;20070;-86
2021/01/27 01:48:19;;;;;;;28.95;17.35;;;2.70;99.90;;;;;;4838248;29;20046;-86
2021/01/27 01:50:49;;;;;;;33.70;17.65;;;2.70;99.90;;;;;;4821960;29;20046;-86
2021/01/27 01:53:16;;;;;;;27.90;17.77;;;2.80;99.90;;;;;;4838227;29;20489;-86
2021/01/27 01:55:42;;;;;;;30.65;17.80;;;2.70;99.90;;;;;;4837784;29;20041;-86
2021/01/27 01:58:10;;;;;;;34.67;18.85;;;2.70;99.90;;;;;;4821393;29;20670;-86
2021/01/27 02:00:38;;;;;;;26.77;17.35;;;2.70;99.90;;;;;;4839685;29;20057;-86
2021/01/27 02:03:07;;;;;;;30.55;16.98;;;2.80;99.90;;;;;;4841058;29;20057;-86
2021/01/27 02:05:33;;;;;;;33.28;17.27;;;2.70;99.90;;;;;;4841746;29;20127;-84
2021/01/27 02:07:59;;;;;;;28.08;17.60;;;2.70;99.90;;;;;;4809632;29;20053;-86
2021/01/27 02:10:25;;;;;;;33.38;17.88;;;2.70;99.90;;;;;;4840270;29;20061;-86
2021/01/27 02:12:54;;;;;;;28.05;17.25;;;2.70;99.90;;;;;;4827569;29;20098;-86
2021/01/27 02:15:43;;;;;;;30.23;17.45;;;2.70;99.90;;;;;;4839709;29;20488;-87
2021/01/27 02:18:30;;;;;;;22.52;15.77;;;2.80;99.90;;;;;;4823688;29;20510;-87
2021/01/27 02:21:30;;;;;;;31.10;16.88;;;2.80;99.90;;;;;;4840047;29;20057;-87
2021/01/27 02:24:34;;;;;;;30.17;16.95;;;2.70;99.90;;;;;;4839466;29;20084;-86
2021/01/27 02:27:07;;;;;;;28.38;16.13;;;2.80;99.90;;;;;;4823199;29;20089;-85
2021/01/27 02:29:55;;;;;;;22.27;15.68;;;2.80;99.90;;;;;;4840883;29;20045;-84
2021/01/27 02:32:24;;;;;;;25.30;15.13;;;2.80;99.90;;;;;;4839010;29;20057;-86
2021/01/27 02:35:19;;;;;;;23.35;15.88;;;2.80;99.90;;;;;;4833083;29;20049;-85
2021/01/27 02:38:15;;;;;;;23.42;14.65;;;2.70;99.90;;;;;;4830664;29;20125;-85
2021/01/27 02:40:54;;;;;;;33.15;15.38;;;2.70;99.90;;;;;;4831084;29;20054;-85
2021/01/27 02:43:30;;;;;;;21.83;13.75;;;2.70;99.90;;;;;;4833090;29;20057;-87
2021/01/27 02:46:22;;;;;;;23.63;14.50;;;2.70;99.90;;;;;;4812783;29;20050;-87
2021/01/27 02:48:57;;;;;;;22.92;14.18;;;2.70;99.90;;;;;;4830492;29;20124;-86
2021/01/27 02:51:45;;;;;;;20.23;12.80;;;2.70;99.90;;;;;;4830550;29;20038;-86
2021/01/27 02:54:32;;;;;;;25.75;13.80;;;2.70;99.90;;;;;;4826633;29;20691;-86
2021/01/27 02:57:12;;;;;;;22.38;13.40;;;2.70;99.90;;;;;;4831709;29;20045;-86
2021/01/27 03:00:06;;;;;;;19.40;13.52;;;2.70;99.90;;;;;;4820822;29;20046;-86
2021/01/27 03:02:38;;;;;;;25.13;13.05;;;2.70;99.90;;;;;;4834175;29;20041;-86
2021/01/27 03:05:06;;;;;;;23.70;13.57;;;2.70;99.90;;;;;;4834097;29;20056;-86
2021/01/27 03:07:35;;;;;;;22.55;13.20;;;2.70;99.90;;;;;;4836323;29;20053;-86
2021/01/27 03:10:13;;;;;;;16.75;12.15;;;2.70;99.90;;;;;;4839615;29;20109;-86
2021/01/27 03:12:40;;;;;;;16.35;12.35;;;2.70;99.90;;;;;;4839085;29;20044;-86
2021/01/27 03:15:08;;;;;;;22.52;12.65;;;2.70;99.90;;;;;;4825370;29;20091;-86
2021/01/27 03:17:35;;;;;;;18.85;11.63;;;2.70;99.90;;;;;;4840233;29;20050;-86
2021/01/27 03:20:07;;;;;;;22.40;12.63;;;2.70;99.90;;;;;;4838783;29;20560;-86
2021/01/27 03:22:51;;;;;;;20.15;11.80;;;2.70;99.90;;;;;;4827308;29;20054;-85
2021/01/27 03:25:22;;;;;;;22.35;12.07;;;2.80;99.90;;;;;;4838763;29;20054;-87
2021/01/27 03:28:13;;;;;;;16.63;10.60;;;2.70;99.90;;;;;;4840028;29;20042;-86
2021/01/27 03:30:39;;;;;;;15.52;10.63;;;2.70;99.90;;;;;;4840565;29;20501;-86
2021/01/27 03:33:24;;;;;;;14.20;10.45;;;2.80;99.90;;;;;;4838620;29;20046;-86
2021/01/27 03:36:04;;;;;;;17.77;10.93;;;2.70;99.90;;;;;;4840325;29;20037;-85
2021/01/27 03:38:39;;;;;;;;;;;2.70;99.90;;;;;;4840512;29;20068;-86
2021/01/27 03:41:17;;;;;;;12.65;9.48;;;2.70;99.90;;;;;;4853789;29;19928;-86
2021/01/27 03:43:56;;;;;;;15.23;10.43;;;2.70;99.90;;;;;;4838726;29;20055;-87
2021/01/27 03:46:43;;;;;;;18.85;10.55;;;2.70;99.90;;;;;;4840717;29;20185;-86
2021/01/27 03:49:32;;;;;;;16.63;9.15;;;2.70;99.90;;;;;;4838238;29;20119;-87
2021/01/27 03:52:09;;;;;;;17.83;9.77;;;2.70;99.90;;;;;;4849226;29;20117;-85
2021/01/27 03:54:39;;;;;;;14.30;9.68;;;2.70;99.90;;;;;;4854284;29;20053;-86
2021/01/27 03:57:16;;;;;;;17.48;10.32;;;2.50;99.90;;;;;;4839194;29;20797;-86
2021/01/27 03:59:46;;;;;;;17.13;11.10;;;2.50;99.90;;;;;;4838596;29;20054;-86
2021/01/27 04:02:19;;;;;;;20.23;12.47;;;2.40;99.90;;;;;;4853066;29;20122;-86
2021/01/27 04:04:45;;;;;;;20.45;12.93;;;2.30;99.90;;;;;;4839615;29;20059;-85
2021/01/27 04:07:11;;;;;;;16.75;12.43;;;2.20;99.90;;;;;;4832865;29;20042;-86
2021/01/27 04:09:36;;;;;;;24.10;12.43;;;2.20;99.90;;;;;;4837005;29;20515;-87
2021/01/27 04:12:02;;;;;;;20.52;12.23;;;2.10;99.90;;;;;;4838813;29;20119;-85
2021/01/27 04:14:28;;;;;;;17.75;12.40;;;2.10;99.90;;;;;;4808180;29;20124;-85
2021/01/27 04:16:54;;;;;;;15.20;11.18;;;2.10;99.90;;;;;;4838941;29;20568;-85
2021/01/27 04:19:20;;;;;;;19.45;11.77;;;2.10;99.90;;;;;;4822201;29;20045;-85
2021/01/27 04:21:46;;;;;;;16.17;11.05;;;2.10;99.90;;;;;;4839680;29;20575;-84
2021/01/27 04:24:11;;;;;;;18.98;11.93;;;2.10;99.90;;;;;;4806843;29;20057;-84
2021/01/27 04:26:37;;;;;;;21.08;12.25;;;2.10;99.90;;;;;;4839164;29;20050;-84
2021/01/27 04:29:04;;;;;;;24.92;11.70;;;2.10;99.90;;;;;;4822454;29;20074;-86
2021/01/27 04:31:30;;;;;;;20.20;11.00;;;2.10;99.90;;;;;;4807834;29;20045;-86
2021/01/27 04:33:56;;;;;;;18.50;11.63;;;2.10;99.90;;;;;;4807860;29;20145;-86
2021/01/27 04:36:23;;;;;;;19.00;11.10;;;2.10;99.90;;;;;;4838277;29;20560;-85
2021/01/27 04:38:52;;;;;;;22.08;11.15;;;2.10;99.90;;;;;;4822792;29;20420;-86
2021/01/27 04:41:18;;;;;;;20.98;11.80;;;2.10;99.90;;;;;;4838114;29;20796;-86
2021/01/27 04:43:46;;;;;;;25.48;12.07;;;2.10;99.90;;;;;;4838959;29;20081;-86
2021/01/27 04:46:33;;;;;;;21.73;11.60;;;2.10;99.90;;;;;;4837755;29;20081;-85
2021/01/27 04:49:12;;;;;;;20.00;10.65;;;2.00;99.90;;;;;;4830767;29;20046;-85
2021/01/27 04:51:58;;;;;;;22.65;10.57;;;2.00;99.90;;;;;;4835894;29;20050;-86
2021/01/27 04:55:02;;;;;;;21.77;11.13;;;2.00;99.90;;;;;;4838333;29;20058;-86
2021/01/27 04:57:46;;;;;;;20.55;9.93;;;2.00;99.90;;;;;;4822680;29;20050;-85
2021/01/27 05:00:30;;;;;;;16.50;10.43;;;2.10;99.90;;;;;;4837547;29;20816;-86
2021/01/27 05:03:13;;;;;;;17.02;9.20;;;2.00;99.90;;;;;;4838389;29;20096;-85
2021/01/27 05:05:44;;;;;;;11.65;7.53;;;2.10;99.90;;;;;;4838456;29;20096;-85
2021/01/27 05:08:15;;;;;;;12.88;7.90;;;2.10;99.90;;;;;;4838305;29;20050;-85
2021/01/27 05:10:54;;;;;;;11.55;8.10;;;2.10;99.90;;;;;;4838272;29;20061;-84
2021/01/27 05:13:26;;;;;;;19.77;9.63;;;2.10;99.90;;;;;;4837873;29;20925;-85
2021/01/27 05:15:55;;;;;;;21.33;9.10;;;2.10;99.90;;;;;;4838294;29;20053;-85
2021/01/27 05:18:21;;;;;;;14.82;8.88;;;2.10;99.90;;;;;;4837977;29;20103;-84
2021/01/27 05:20:49;;;;;;;13.05;8.70;;;2.10;99.90;;;;;;4821063;29;20078;-85
2021/01/27 05:23:16;;;;;;;17.05;9.15;;;2.10;99.90;;;;;;4811861;29;20058;-85
2021/01/27 05:26:05;;;;;;;14.68;8.65;;;2.10;99.90;;;;;;4832418;29;20053;-84
2021/01/27 05:28:39;;;;;;;17.25;8.20;;;2.10;99.90;;;;;;4838798;29;20048;-85
2021/01/27 05:31:05;;;;;;;16.63;7.47;;;2.20;99.90;;;;;;4837989;29;20058;-83
2021/01/27 05:33:47;;;;;;;18.02;8.15;;;2.20;99.90;;;;;;4838578;29;20124;-85
2021/01/27 05:36:15;;;;;;;11.38;8.10;;;2.20;99.90;;;;;;4840600;29;20439;-85
2021/01/27 05:38:41;;;;;;;16.58;8.23;;;2.30;99.90;;;;;;4841987;29;20129;-85
2021/01/27 05:41:21;;;;;;;12.10;7.50;;;2.30;99.90;;;;;;4841266;29;20404;-83
2021/01/27 05:43:54;;;;;;;17.25;8.55;;;2.30;99.90;;;;;;4831751;29;20054;-86
2021/01/27 05:46:26;;;;;;;12.05;7.38;;;2.30;99.90;;;;;;4841162;29;20053;-85
2021/01/27 05:48:52;;;;;;;12.20;8.38;;;2.20;99.90;;;;;;4825920;29;20042;-85
2021/01/27 05:51:33;;;;;;;14.27;8.48;;;2.20;99.90;;;;;;4824625;29;20050;-84
2021/01/27 05:54:00;;;;;;;12.85;8.95;;;2.30;99.90;;;;;;4825820;29;20066;-84
2021/01/27 05:56:30;;;;;;;9.95;7.97;;;2.20;99.90;;;;;;4840849;29;20140;-85
2021/01/27 05:59:06;;;;;;;12.57;7.65;;;2.30;99.90;;;;;;4825682;29;20050;-85
2021/01/27 06:01:40;;;;;;;10.88;8.43;;;2.20;99.90;;;;;;4841258;29;20046;-85
2021/01/27 06:04:11;;;;;;;14.07;8.85;;;2.20;99.90;;;;;;4841664;29;20050;-83
2021/01/27 06:07:22;;;;;;;15.25;8.95;;;2.10;99.90;;;;;;4824720;29;20669;-85
2021/01/27 06:09:53;;;;;;;19.83;9.82;;;2.00;99.90;;;;;;4825333;29;20058;-85
2021/01/27 06:12:19;;;;;;;17.02;9.57;;;1.90;99.90;;;;;;4840928;29;20068;-86
2021/01/27 06:15:04;;;;;;;16.73;9.68;;;1.80;99.90;;;;;;4841450;29;20081;-87
2021/01/27 06:17:41;;;;;;;14.73;9.43;;;1.70;99.90;;;;;;4823920;29;20628;-85
2021/01/27 06:20:15;;;;;;;15.02;10.38;;;1.60;99.90;;;;;;4841592;29;20044;-84
2021/01/27 06:23:00;;;;;;;16.23;10.25;;;1.50;99.90;;;;;;4841397;29;20103;-83
2021/01/27 06:25:50;;;;;;;21.38;10.10;;;1.50;99.90;;;;;;4840602;29;20062;-82
2021/01/27 06:28:19;;;;;;;25.08;11.02;;;1.50;99.90;;;;;;4818334;29;20053;-82
2021/01/27 06:30:49;;;;;;;18.27;10.95;;;1.40;99.90;;;;;;4840522;29;20053;-83
2021/01/27 06:33:34;;;;;;;18.77;11.75;;;1.30;99.90;;;;;;4838884;29;20054;-83
2021/01/27 06:36:09;;;;;;;16.08;11.07;;;1.20;99.90;;;;;;4841182;29;20049;-83
2021/01/27 06:39:01;;;;;;;24.08;12.52;;;1.20;99.90;;;;;;4840394;29;20045;-83
2021/01/27 06:42:00;;;;;;;22.35;12.18;;;1.20;99.90;;;;;;4840199;29;20056;-85
2021/01/27 06:44:52;;;;;;;25.95;12.20;;;1.20;99.90;;;;;;4811520;29;20050;-84
2021/01/27 06:47:28;;;;;;;20.63;12.30;;;1.10;99.90;;;;;;4829040;29;20073;-83
2021/01/27 06:50:01;;;;;;;26.58;12.77;;;1.00;99.90;;;;;;4840596;29;20046;-83
2021/01/27 06:52:55;;;;;;;19.58;12.30;;;1.00;99.90;;;;;;4840033;29;20042;-84
2021/01/27 06:55:49;;;;;;;35.22;13.68;;;1.00;99.90;;;;;;4834661;29;20118;-83
2021/01/27 06:58:23;;;;;;;85.18;14.02;;;1.00;99.90;;;;;;4820267;29;20049;-83
2021/01/27 07:01:24;;;;;;;26.95;12.15;;;0.90;99.90;;;;;;4839980;29;20045;-82
2021/01/27 07:03:56;;;;;;;;;;;0.90;99.90;;;;;;4790526;29;20129;-83
2021/01/27 07:06:24;;;;;;;21.00;11.30;;;0.90;99.90;;;;;;4839297;29;19928;-82
2021/01/27 07:09:05;;;;;;;19.67;10.63;;;0.90;99.90;;;;;;4839785;29;20214;-83
2021/01/27 07:11:40;;;;;;;33.25;12.82;;;0.90;99.90;;;;;;4823355;29;20046;-83
2021/01/27 07:14:17;;;;;;;23.75;12.18;;;1.00;99.90;;;;;;4840418;29;20050;-82
2021/01/27 07:16:46;;;;;;;24.65;13.13;;;0.80;99.90;;;;;;4840687;29;20165;-82
2021/01/27 07:20:16;;;;;;;26.55;13.38;;;0.80;99.90;;;;;;4840053;29;20054;-81
2021/01/27 07:23:07;;;;;;;26.83;12.88;;;0.80;99.90;;;;;;4727685;30;20076;-81
2021/01/27 07:25:47;;;;;;;19.15;9.65;;;0.80;99.90;;;;;;4832476;29;20224;-81
2021/01/27 07:28:22;;;;;;;32.00;13.77;;;0.80;99.90;;;;;;4840111;29;20046;-81
2021/01/27 07:31:08;;;;;;;26.77;14.23;;;0.80;99.90;;;;;;4840352;29;20073;-81
2021/01/27 07:34:01;;;;;;;23.20;11.77;;;0.80;99.90;;;;;;4812669;29;20045;-82
2021/01/27 07:36:27;;;;;;;20.73;12.95;;;0.80;99.90;;;;;;4822726;29;20053;-82
2021/01/27 07:38:56;;;;;;;25.40;11.40;;;0.80;99.90;;;;;;4830985;29;20054;-82
2021/01/27 07:41:28;;;;;;;22.23;13.80;;;0.80;99.90;;;;;;4835720;29;20255;-81
2021/01/27 07:44:03;;;;;;;27.98;11.60;;;0.80;99.90;;;;;;4839937;29;20625;-85
2021/01/27 07:46:39;;;;;;;16.40;10.52;;;0.80;99.90;;;;;;4839231;29;20058;-85
2021/01/27 07:49:06;;;;;;;23.08;11.93;;;0.80;99.90;;;;;;4839330;29;20050;-85
2021/01/27 07:51:50;;;;;;;13.98;10.13;;;0.80;99.90;;;;;;4822127;29;20053;-85
2021/01/27 07:54:24;;;;;;;20.92;12.13;;;0.80;99.90;;;;;;4839323;29;20125;-85
2021/01/27 07:57:03;;;;;;;15.07;9.77;;;0.80;99.90;;;;;;4839457;29;20042;-86
2021/01/27 07:59:47;;;;;;;13.98;10.27;;;0.80;99.90;;;;;;4839050;29;20134;-87
2021/01/27 08:02:20;;;;;;;20.77;10.25;;;0.80;99.90;;;;;;4820224;29;20129;-86
2021/01/27 08:04:50;;;;;;;25.38;10.93;;;0.80;99.90;;;;;;4824424;29;20074;-85
2021/01/27 08:07:24;;;;;;;13.82;10.27;;;0.80;99.90;;;;;;4818752;29;20069;-86
2021/01/27 08:09:52;;;;;;;17.98;9.55;;;0.80;99.90;;;;;;4829917;29;20050;-86
2021/01/27 08:12:27;;;;;;;14.57;9.05;;;0.80;99.90;;;;;;4808296;29;20125;-88
2021/01/27 08:15:19;;;;;;;32.92;10.30;;;0.80;99.90;;;;;;4836486;29;20050;-87
2021/01/27 08:17:45;;;;;;;17.08;9.73;;;0.80;99.90;;;;;;4820949;29;20081;-90
2021/01/27 08:20:37;;;;;;;13.77;9.27;;;0.80;99.90;;;;;;4811076;29;20081;-90
2021/01/27 08:23:06;;;;;;;18.63;8.80;;;0.80;99.90;;;;;;4820090;29;20046;-92
2021/01/27 08:25:57;;;;;;;11.77;8.40;;;0.90;99.90;;;;;;4833324;29;20042;-92
2021/01/27 08:28:35;;;;;;;18.33;8.75;;;0.80;99.90;;;;;;4823152;29;20046;-91
2021/01/27 08:31:07;;;;;;;20.35;8.32;;;0.90;99.90;;;;;;4832422;29;20049;-89
2021/01/27 08:33:42;;;;;;;13.65;8.70;;;0.80;99.90;;;;;;4837897;29;20049;-88
2021/01/27 08:36:13;;;;;;;13.05;8.20;;;0.90;99.90;;;;;;4820162;29;20046;-91
2021/01/27 08:39:11;;;;;;;11.90;7.68;;;1.00;99.90;;;;;;4833172;29;20387;-89
2021/01/27 08:41:40;;;;;;;10.98;6.80;;;1.00;99.90;;;;;;4830174;29;20050;-87
2021/01/27 08:44:21;;;;;;;9.73;6.18;;;1.00;99.90;;;;;;4818066;29;20038;-88
2021/01/27 08:47:02;;;;;;;8.48;6.18;;;1.00;99.90;;;;;;4837072;29;20079;-90
2021/01/27 08:49:37;;;;;;;9.15;6.32;;;1.00;99.90;;;;;;4815314;29;20049;-89
2021/01/27 08:52:09;;;;;;;8.48;6.55;;;1.00;99.90;;;;;;4816139;29;20429;-91
2021/01/27 08:54:35;;;;;;;7.35;6.25;;;0.90;99.90;;;;;;4814234;29;20058;-95
2021/01/27 08:57:19;;;;;;;11.15;6.70;;;1.00;99.90;;;;;;4818997;29;20541;-95
2021/01/27 09:00:08;;;;;;;7.53;5.57;;;1.00;99.90;;;;;;4815956;29;20560;-93
2021/01/27 09:02:44;;;;;;;8.05;6.22;;;1.00;99.90;;;;;;4821087;29;20056;-93
2021/01/27 09:05:19;;;;;;;8.73;5.68;;;1.10;99.90;;;;;;4822820;29;20098;-92
2021/01/27 09:07:52;;;;;;;14.25;6.22;;;1.10;99.90;;;;;;4817336;29;20051;-92
2021/01/27 09:10:21;;;;;;;8.80;6.72;;;1.20;99.90;;;;;;4833718;29;20050;-90
2021/01/27 09:12:48;;;;;;;6.72;5.35;;;1.20;99.90;;;;;;4838096;29;20129;-90
2021/01/27 09:15:29;;;;;;;8.25;5.72;;;1.20;99.90;;;;;;4821058;29;20133;-90
2021/01/27 09:17:59;;;;;;;7.10;6.43;;;1.30;99.90;;;;;;4837840;29;20044;-92
2021/01/27 09:20:28;;;;;;;10.50;6.55;;;1.30;99.90;;;;;;4825189;29;20046;-88
2021/01/27 09:23:04;;;;;;;7.05;6.00;;;1.20;99.90;;;;;;4833676;29;20112;-90
2021/01/27 09:25:32;;;;;;;10.70;6.10;;;1.30;99.90;;;;;;4834849;29;20046;-90
2021/01/27 09:28:06;;;;;;;9.27;6.45;;;1.20;99.90;;;;;;4836915;29;20056;-88
2021/01/27 09:30:33;;;;;;;8.65;6.72;;;1.20;99.90;;;;;;4836598;29;20046;-88
2021/01/27 09:33:13;;;;;;;9.65;6.45;;;1.30;99.90;;;;;;4849834;29;20118;-90
2021/01/27 09:35:41;;;;;;;8.57;7.05;;;1.30;99.90;;;;;;4834585;29;20053;-91
2021/01/27 09:38:16;;;;;;;10.43;6.65;;;1.30;99.90;;;;;;4848046;29;20073;-90
2021/01/27 09:40:52;;;;;;;7.10;6.32;;;1.30;99.90;;;;;;4849058;29;20038;-89
2021/01/27 09:43:21;;;;;;;12.00;7.47;;;1.30;99.90;;;;;;4837222;29;20046;-87
2021/01/27 09:45:51;;;;;;;8.38;7.03;;;1.30;99.90;;;;;;4847931;29;20050;-88
2021/01/27 09:48:21;;;;;;;8.13;7.32;;;1.30;99.90;;;;;;4836679;29;20046;-88
2021/01/27 09:50:58;;;;;;;10.23;7.97;;;1.30;99.90;;;;;;4836402;29;20048;-87
2021/01/27 09:53:36;;;;;;;9.02;7.65;;;1.30;99.90;;;;;;4834243;29;20046;-86
2021/01/27 09:56:03;;;;;;;8.98;8.02;;;1.30;99.90;;;;;;4835490;29;20142;-89
2021/01/27 09:58:30;;;;;;;8.85;7.95;;;1.30;99.90;;;;;;4819328;29;20550;-88
2021/01/27 10:01:04;;;;;;;11.10;8.57;;;1.30;99.90;;;;;;4820462;29;20401;-88
2021/01/27 10:03:41;;;;;;;8.63;6.65;;;1.30;99.90;;;;;;4836403;29;20038;-88
2021/01/27 10:06:31;;;;;;;9.52;7.10;;;1.30;99.90;;;;;;4837528;29;20046;-86
2021/01/27 10:08:59;;;;;;;10.55;6.95;;;1.30;99.90;;;;;;4837195;29;20082;-87
2021/01/27 10:11:28;;;;;;;8.13;7.07;;;1.40;99.90;;;;;;4835184;29;20085;-88
2021/01/27 10:14:05;;;;;;;8.57;7.35;;;1.40;99.90;;;;;;4837648;29;20141;-88
2021/01/27 10:16:32;;;;;;;9.65;7.43;;;1.40;99.90;;;;;;4835067;29;20060;-91
2021/01/27 10:19:07;;;;;;;9.77;7.70;;;1.50;99.90;;;;;;4819728;29;20508;-89
2021/01/27 10:21:55;;;;;;;8.98;7.15;;;1.50;99.90;;;;;;4836400;29;21032;-88
2021/01/27 10:24:39;;;;;;;8.10;6.85;;;1.50;99.90;;;;;;4839716;29;20042;-89
2021/01/27 10:27:06;;;;;;;7.90;7.10;;;1.50;99.90;;;;;;4824762;29;20049;-91
2021/01/27 10:29:37;;;;;;;9.10;7.57;;;1.40;99.90;;;;;;4826063;29;20136;-93
2021/01/27 10:32:28;;;;;;;7.20;6.57;;;1.50;99.90;;;;;;4815938;29;20057;-92
2021/01/27 10:34:54;;;;;;;;;;;1.50;99.90;;;;;;4827195;29;20054;-89
2021/01/27 10:37:34;;;;;;;9.68;6.22;;;1.60;99.90;;;;;;4830902;29;19925;-92
2021/01/27 10:40:22;;;;;;;10.25;5.40;;;1.50;99.90;;;;;;4839428;29;20130;-93
2021/01/27 10:43:00;;;;;;;6.50;5.80;;;1.50;99.90;;;;;;4839383;29;20075;-93
2021/01/27 10:45:58;;;;;;;6.10;4.88;;;1.60;99.90;;;;;;4827950;29;20050;-94
2021/01/27 10:48:25;;;;;;;6.32;5.65;;;1.50;99.90;;;;;;4812018;29;20515;-95
2021/01/27 10:50:58;;;;;;;7.50;6.80;;;1.60;99.90;;;;;;4840178;29;20045;-92
2021/01/27 10:53:24;;;;;;;6.68;5.97;;;1.60;99.90;;;;;;4827768;29;20070;-94
2021/01/27 10:55:54;;;;;;;6.75;5.78;;;1.60;99.90;;;;;;4840796;29;20076;-95
2021/01/27 10:58:21;;;;;;;8.30;6.20;;;1.60;99.90;;;;;;4826061;29;20049;-95
2021/01/27 11:00:47;;;;;;;7.38;6.18;;;1.60;99.90;;;;;;4825035;29;20048;-95
2021/01/27 11:03:13;;;;;;;6.75;6.05;;;1.60;99.90;;;;;;4841825;29;20056;-92
2021/01/27 11:05:40;;;;;;;7.25;5.85;;;1.70;99.90;;;;;;4838191;29;20129;-92
2021/01/27 11:08:11;;;;;;;6.65;6.07;;;1.70;99.90;;;;;;4825119;29;20103;-93
2021/01/27 11:10:36;;;;;;;7.93;6.13;;;1.80;99.90;;;;;;4840090;29;20049;-94
2021/01/27 11:13:03;;;;;;;8.98;6.82;;;1.80;99.90;;;;;;4809683;29;20142;-94
2021/01/27 11:15:29;;;;;;;6.55;5.95;;;1.80;99.90;;;;;;4809193;29;20106;-91
2021/01/27 11:17:55;;;;;;;6.35;5.75;;;1.80;99.90;;;;;;4823972;29;20450;-92
2021/01/27 11:20:24;;;;;;;6.63;5.55;;;1.80;99.90;;;;;;4827122;29;20058;-92
2021/01/27 11:22:51;;;;;;;6.82;6.07;;;1.80;99.90;;;;;;4814793;29;20053;-88
2021/01/27 11:25:20;;;;;;;6.65;5.90;;;1.80;99.90;;;;;;4835198;29;20412;-88
2021/01/27 11:27:46;;;;;;;7.00;6.30;;;1.90;99.90;;;;;;4823488;29;20058;-88
2021/01/27 11:30:14;;;;;;;6.95;6.13;;;1.90;99.90;;;;;;4839450;29;20151;-89
2021/01/27 11:32:40;;;;;;;6.78;6.18;;;1.90;99.90;;;;;;4836278;29;20042;-87
2021/01/27 11:35:06;;;;;;;7.15;6.50;;;1.90;99.90;;;;;;4805583;29;20413;-88
2021/01/27 11:37:32;;;;;;;6.28;5.65;;;2.00;99.90;;;;;;4808600;29;20073;-88
2021/01/27 11:39:58;;;;;;;7.40;6.30;;;2.00;99.90;;;;;;4813680;29;20045;-87
2021/01/27 11:42:25;;;;;;;7.30;6.10;;;1.90;99.90;;;;;;4805750;29;20102;-89
2021/01/27 11:44:50;;;;;;;6.97;6.10;;;1.90;99.90;;;;;;4835259;29;20117;-87
2021/01/27 11:47:16;;;;;;;9.68;6.00;;;2.00;99.90;;;;;;4822202;29;20481;-88
2021/01/27 11:49:45;;;;;;;9.65;6.78;;;2.00;99.90;;;;;;4806485;29;20064;-87
2021/01/27 11:52:12;;;;;;;8.65;6.53;;;2.10;99.90;;;;;;4837909;29;20041;-89
2021/01/27 11:54:41;;;;;;;6.30;5.72;;;2.10;99.90;;;;;;4806055;29;20056;-88
2021/01/27 11:57:08;;;;;;;11.75;6.53;;;2.20;99.90;;;;;;4837018;29;20042;-90
2021/01/27 11:59:34;;;;;;;8.05;6.47;;;2.20;99.90;;;;;;4811026;29;20047;-91
2021/01/27 12:02:01;;;;;;;7.72;6.75;;;2.20;99.90;;;;;;4820750;29;20049;-92
2021/01/27 12:04:27;;;;;;;7.20;6.35;;;2.30;99.90;;;;;;4830130;29;20098;-86
2021/01/27 12:06:53;;;;;;;7.68;5.60;;;2.30;99.90;;;;;;4835556;29;21298;-87
2021/01/27 12:09:19;;;;;;;7.65;5.72;;;2.20;99.90;;;;;;4846503;29;20466;-89
2021/01/27 12:11:45;;;;;;;6.13;5.53;;;2.30;99.90;;;;;;4813443;29;20049;-87
2021/01/27 12:14:11;;;;;;;5.90;5.40;;;2.20;99.90;;;;;;4821916;29;20050;-89
2021/01/27 12:16:37;;;;;;;7.30;6.45;;;2.10;99.90;;;;;;4835735;29;20041;-87
2021/01/27 12:19:03;;;;;;;6.75;6.10;;;2.20;99.90;;;;;;4804777;29;20458;-86
2021/01/27 12:21:28;;;;;;;6.50;5.93;;;2.20;99.90;;;;;;4827641;29;20080;-90
2021/01/27 12:23:54;;;;;;;6.97;5.63;;;2.20;99.90;;;;;;4841425;29;20480;-91
2021/01/27 12:26:20;;;;;;;8.35;5.63;;;2.30;99.90;;;;;;4829923;29;20042;-90
2021/01/27 12:28:46;;;;;;;5.78;5.00;;;2.10;99.90;;;;;;4824626;29;20066;-94
2021/01/27 12:31:12;;;;;;;6.43;5.82;;;2.10;99.90;;;;;;4833126;29;20099;-91
2021/01/27 12:33:39;;;;;;;7.18;5.78;;;2.10;99.90;;;;;;4826120;29;20089;-91
2021/01/27 12:36:05;;;;;;;7.72;6.20;;;2.10;99.90;;;;;;4839917;29;20050;-94
2021/01/27 12:38:32;;;;;;;6.15;5.63;;;2.10;99.90;;;;;;4830055;29;20162;-93
2021/01/27 12:40:58;;;;;;;7.40;5.60;;;2.20;99.90;;;;;;4822109;29;20072;-92
2021/01/27 12:43:24;;;;;;;6.10;5.60;;;2.10;99.90;;;;;;4818799;29;20064;-94
2021/01/27 12:45:50;;;;;;;6.63;6.00;;;2.20;99.90;;;;;;4823555;29;20556;-92
2021/01/27 12:48:16;;;;;;;11.77;6.95;;;2.20;99.90;;;;;;4829488;29;20048;-95
2021/01/27 12:50:42;;;;;;;8.93;5.90;;;2.20;99.90;;;;;;4824759;29;20057;-93
2021/01/27 12:53:08;;;;;;;9.25;6.63;;;2.20;99.90;;;;;;4836887;29;20054;-94
2021/01/27 12:55:34;;;;;;;10.07;6.18;;;2.30;99.90;;;;;;4851737;29;20073;-93
2021/01/27 12:58:00;;;;;;;6.38;5.45;;;2.20;99.90;;;;;;4852967;29;20575;-92
2021/01/27 13:00:27;;;;;;;4.90;4.20;;;2.40;99.90;;;;;;4838054;29;20102;-92
2021/01/27 13:02:55;;;;;;;9.25;6.82;;;2.30;99.90;;;;;;4821515;29;20054;-89
2021/01/27 13:05:22;;;;;;;7.10;6.40;;;2.30;99.90;;;;;;4835837;29;21005;-92
2021/01/27 13:07:48;;;;;;;13.88;8.75;;;2.30;99.90;;;;;;4816797;29;20100;-90
2021/01/27 13:10:16;;;;;;;9.70;6.55;;;2.30;99.90;;;;;;4838375;29;20484;-93
2021/01/27 13:12:43;;;;;;;10.75;8.48;;;2.40;99.90;;;;;;4807942;29;20098;-89
2021/01/27 13:15:11;;;;;;;7.65;6.82;;;2.50;99.90;;;;;;4797227;29;20046;-92